Terminal Aerodrome Forecast
Issued by NWS Charleston, WV

Current Version | Previous Version | Text Only | Print | Product List | Glossary Off
Versions: 1 2 3 4 5 6 7 8 9 10 11 12 13 14 15 16 17 18 19 20 21 22 23 24 25

000
FTUS41 KRLX 021500 AAB
TAFCRW
TAF AMD
KCRW 021527Z 0215/0312 31008KT P6SM SCT025 SCT250
      TEMPO 0215/0219 BKN025
     FM022300 33003KT P6SM SCT250
     FM030600 VRB02KT P6SM BKN200=

USA.gov is the U.S. government's official web portal to all federal, state and local government web resources and services.